Time;durP1;ratioP1;P1;durP2;ratioP2;P2;SDS_P1;SDS_P2;PMS_P1;PMS_P2;Temp;Humidity;BMP_temperature;BMP_pressure;BME280_temperature;BME280_humidity;BME280_pressure;Samples;Min_cycle;Max_cycle;Signal;HPM_P1;HPM_P2
2023/07/30 00:00:35;;;;;;;5.70;4.32;;;19.00;99.90;;;;;;5041150;28;20211;-77
2023/07/30 00:03:01;;;;;;;6.45;4.50;;;19.00;99.90;;;;;;5044872;28;20230;-75
2023/07/30 00:05:27;;;;;;;9.18;4.30;;;19.00;99.90;;;;;;5045586;28;20719;-75
2023/07/30 00:07:53;;;;;;;5.25;3.47;;;19.00;99.90;;;;;;5043672;28;20172;-75
2023/07/30 00:10:19;;;;;;;5.32;4.13;;;18.90;99.90;;;;;;5042573;28;20178;-75
2023/07/30 00:12:45;;;;;;;3.63;3.33;;;18.90;99.90;;;;;;5045697;28;20298;-74
2023/07/30 00:15:10;;;;;;;9.95;4.15;;;18.90;99.90;;;;;;5045077;28;20208;-75
2023/07/30 00:17:36;;;;;;;5.82;3.25;;;18.90;99.90;;;;;;5046298;28;20998;-75
2023/07/30 00:20:02;;;;;;;3.35;3.05;;;18.90;99.90;;;;;;5046614;28;20193;-75
2023/07/30 00:22:28;;;;;;;5.03;3.35;;;18.90;99.90;;;;;;5046854;28;20198;-75
2023/07/30 00:24:54;;;;;;;5.15;3.58;;;18.80;99.90;;;;;;5047698;28;20195;-75
2023/07/30 00:27:19;;;;;;;3.95;3.55;;;18.80;99.90;;;;;;5051624;28;20286;-75
2023/07/30 00:29:45;;;;;;;5.10;3.13;;;18.80;99.90;;;;;;5042528;28;20349;-76
2023/07/30 00:32:11;;;;;;;4.05;3.10;;;18.80;99.90;;;;;;5040512;28;20215;-75
2023/07/30 00:34:36;;;;;;;3.60;3.05;;;18.80;99.90;;;;;;5060991;28;20188;-74
2023/07/30 00:37:02;;;;;;;3.95;3.33;;;18.80;99.90;;;;;;5045976;28;20212;-75
2023/07/30 00:39:27;;;;;;;4.53;3.17;;;18.70;99.90;;;;;;5043378;28;20242;-76
2023/07/30 00:41:53;;;;;;;3.95;3.60;;;18.70;99.90;;;;;;5062801;28;20226;-75
2023/07/30 00:44:19;;;;;;;4.78;2.90;;;18.70;99.90;;;;;;5045225;28;20298;-75
2023/07/30 00:46:44;;;;;;;4.22;3.22;;;18.60;99.90;;;;;;5047558;28;20237;-75
2023/07/30 00:49:10;;;;;;;4.20;3.40;;;18.60;99.90;;;;;;5055408;28;20537;-75
2023/07/30 00:51:37;;;;;;;4.53;2.88;;;18.60;99.90;;;;;;5047642;28;20215;-76
2023/07/30 00:54:02;;;;;;;3.67;3.20;;;18.60;99.90;;;;;;5049171;28;20207;-75
2023/07/30 00:56:28;;;;;;;4.45;3.28;;;18.50;99.90;;;;;;5047249;28;20204;-76
2023/07/30 00:58:55;;;;;;;5.18;3.35;;;18.50;99.90;;;;;;5049621;28;20195;-75
2023/07/30 01:01:20;;;;;;;3.63;3.33;;;18.50;99.90;;;;;;5050872;28;20239;-75
2023/07/30 01:03:46;;;;;;;4.72;3.00;;;18.40;99.90;;;;;;5047088;28;20272;-75
2023/07/30 01:06:11;;;;;;;4.20;3.80;;;18.40;99.90;;;;;;5042271;28;20257;-75
2023/07/30 01:08:38;;;;;;;3.42;3.13;;;18.30;99.90;;;;;;5042466;28;20250;-75
2023/07/30 01:11:05;;;;;;;4.53;3.45;;;18.30;99.90;;;;;;5044075;28;20228;-75
2023/07/30 01:13:32;;;;;;;6.03;3.60;;;18.30;99.90;;;;;;5044330;28;20188;-75
2023/07/30 01:15:57;;;;;;;3.65;3.28;;;18.30;99.90;;;;;;5046960;28;20294;-75
2023/07/30 01:18:23;;;;;;;3.72;3.40;;;18.20;99.90;;;;;;5061892;28;20341;-75
2023/07/30 01:20:53;;;;;;;5.60;3.28;;;18.30;99.90;;;;;;5048015;28;20641;-75
2023/07/30 01:23:18;;;;;;;3.63;3.03;;;18.30;99.90;;;;;;5044362;28;20219;-75
2023/07/30 01:25:45;;;;;;;4.90;3.60;;;18.30;99.90;;;;;;5049013;28;20179;-76
2023/07/30 01:28:15;;;;;;;3.90;3.20;;;18.30;99.90;;;;;;5045384;28;20172;-75
2023/07/30 01:30:45;;;;;;;7.68;3.22;;;18.30;99.90;;;;;;5049170;28;20723;-73
2023/07/30 01:33:11;;;;;;;3.97;3.22;;;18.30;99.90;;;;;;5049465;28;20204;-74
2023/07/30 01:35:38;;;;;;;3.45;3.13;;;18.30;99.90;;;;;;5047229;28;20199;-75
2023/07/30 01:38:05;;;;;;;5.45;3.65;;;18.20;99.90;;;;;;5045311;28;20266;-75
2023/07/30 01:40:32;;;;;;;3.70;3.30;;;18.20;99.90;;;;;;5042224;28;20179;-75
2023/07/30 01:42:58;;;;;;;5.90;3.58;;;18.20;99.90;;;;;;5044914;28;20233;-75
2023/07/30 01:45:23;;;;;;;9.02;3.47;;;18.20;99.90;;;;;;5039924;28;20295;-74
2023/07/30 01:47:49;;;;;;;5.03;3.17;;;18.20;99.90;;;;;;5044020;28;20200;-75
2023/07/30 01:50:15;;;;;;;4.90;3.35;;;18.10;99.90;;;;;;5044375;28;20212;-75
2023/07/30 01:52:40;;;;;;;4.85;3.53;;;18.10;99.90;;;;;;5040988;28;20199;-75
2023/07/30 01:55:06;;;;;;;4.10;3.10;;;18.20;99.90;;;;;;5047262;28;20195;-74
2023/07/30 01:57:32;;;;;;;3.42;3.13;;;18.10;99.90;;;;;;5045858;28;20200;-75
2023/07/30 01:59:58;;;;;;;5.70;3.65;;;18.10;99.90;;;;;;5044899;28;20249;-75
2023/07/30 02:02:23;;;;;;;3.42;3.13;;;18.20;99.90;;;;;;5046304;28;20200;-75
2023/07/30 02:04:49;;;;;;;5.88;3.85;;;18.10;99.90;;;;;;5047054;28;20179;-75
2023/07/30 02:07:14;;;;;;;9.13;3.67;;;18.10;99.90;;;;;;5047592;28;20172;-75
2023/07/30 02:09:40;;;;;;;6.15;3.35;;;18.10;99.90;;;;;;5049077;28;20725;-76
2023/07/30 02:12:06;;;;;;;6.38;3.72;;;18.10;99.90;;;;;;5048011;28;20258;-75
2023/07/30 02:14:32;;;;;;;4.32;3.53;;;18.10;99.90;;;;;;5049214;28;20211;-75
2023/07/30 02:16:57;;;;;;;6.32;3.88;;;18.10;99.90;;;;;;5045295;28;20642;-76
2023/07/30 02:19:23;;;;;;;4.13;3.30;;;18.00;99.90;;;;;;5046287;28;20167;-75
2023/07/30 02:21:49;;;;;;;3.80;3.38;;;18.00;99.90;;;;;;5042042;28;20211;-76
2023/07/30 02:24:14;;;;;;;4.22;3.30;;;18.00;99.90;;;;;;5039769;28;20207;-75
2023/07/30 02:26:40;;;;;;;4.07;3.67;;;17.90;99.90;;;;;;5044857;28;20290;-75
2023/07/30 02:29:06;;;;;;;3.75;3.35;;;17.90;99.90;;;;;;5045679;28;20284;-75
2023/07/30 02:31:32;;;;;;;5.63;3.40;;;17.90;99.90;;;;;;5043073;28;20265;-75
2023/07/30 02:33:57;;;;;;;4.20;3.60;;;17.90;99.90;;;;;;5044791;28;20690;-75
2023/07/30 02:36:24;;;;;;;3.80;3.40;;;17.90;99.90;;;;;;5046725;28;20229;-75
2023/07/30 02:38:50;;;;;;;4.20;3.33;;;18.00;99.90;;;;;;5047523;28;20791;-75
2023/07/30 02:41:16;;;;;;;4.38;3.50;;;18.00;99.90;;;;;;5046951;28;20215;-75
2023/07/30 02:43:42;;;;;;;4.38;3.40;;;18.00;99.90;;;;;;5048281;28;20694;-75
2023/07/30 02:46:08;;;;;;;4.95;3.72;;;18.00;99.90;;;;;;5047547;28;20297;-75
2023/07/30 02:48:33;;;;;;;4.75;3.55;;;18.00;99.90;;;;;;5047058;28;20562;-75
2023/07/30 02:50:59;;;;;;;4.18;3.63;;;18.00;99.90;;;;;;5046792;28;20248;-76
2023/07/30 02:53:24;;;;;;;4.45;4.05;;;18.00;99.90;;;;;;5048450;28;20206;-74
2023/07/30 02:55:50;;;;;;;4.05;3.60;;;18.00;99.90;;;;;;5047095;28;20174;-75
2023/07/30 02:58:16;;;;;;;3.60;3.30;;;18.00;99.90;;;;;;5042597;28;20178;-75
2023/07/30 03:00:41;;;;;;;4.07;3.65;;;18.00;99.90;;;;;;5058946;28;20772;-75
2023/07/30 03:03:07;;;;;;;5.97;3.72;;;18.00;99.90;;;;;;5047650;28;20222;-75
2023/07/30 03:05:33;;;;;;;4.40;4.00;;;18.00;99.90;;;;;;5043755;28;20200;-76
2023/07/30 03:07:58;;;;;;;4.03;3.25;;;18.00;99.90;;;;;;5044714;28;20724;-74
2023/07/30 03:10:24;;;;;;;4.18;3.63;;;18.00;99.90;;;;;;5046803;28;20250;-73
2023/07/30 03:12:49;;;;;;;4.80;3.35;;;18.00;99.90;;;;;;5043626;28;20208;-75
2023/07/30 03:15:15;;;;;;;4.65;3.50;;;18.10;99.90;;;;;;5046582;28;20204;-73
2023/07/30 03:17:41;;;;;;;6.22;3.58;;;18.00;99.90;;;;;;5046001;28;20563;-73
2023/07/30 03:20:08;;;;;;;4.80;3.35;;;18.00;99.90;;;;;;5045802;28;20666;-72
2023/07/30 03:22:34;;;;;;;4.28;3.65;;;18.00;99.90;;;;;;5045953;28;20199;-74
2023/07/30 03:24:59;;;;;;;5.70;3.85;;;18.00;99.90;;;;;;5046957;28;20299;-73
2023/07/30 03:27:25;;;;;;;5.72;3.58;;;18.00;99.90;;;;;;5047517;28;20199;-74
2023/07/30 03:29:50;;;;;;;6.40;3.70;;;18.00;99.90;;;;;;5046682;28;20200;-74
2023/07/30 03:32:16;;;;;;;6.82;3.47;;;18.10;99.90;;;;;;5043689;28;20245;-74
2023/07/30 03:34:42;;;;;;;5.13;3.90;;;18.00;99.90;;;;;;5057047;28;20211;-73
2023/07/30 03:37:07;;;;;;;6.15;3.45;;;18.00;99.90;;;;;;5046335;28;20211;-73
2023/07/30 03:39:33;;;;;;;4.18;3.72;;;18.00;99.90;;;;;;5060240;28;20283;-73
2023/07/30 03:41:58;;;;;;;4.25;3.55;;;17.90;99.90;;;;;;5045131;28;20204;-73
2023/07/30 03:44:24;;;;;;;5.30;4.13;;;18.00;99.90;;;;;;5043903;28;20214;-73
2023/07/30 03:46:50;;;;;;;4.75;4.28;;;18.00;99.90;;;;;;5048020;28;20176;-73
2023/07/30 03:49:15;;;;;;;4.55;3.70;;;18.10;99.90;;;;;;5046202;28;20164;-74
2023/07/30 03:51:41;;;;;;;4.90;3.75;;;18.20;99.90;;;;;;5047180;28;20211;-73
2023/07/30 03:54:06;;;;;;;3.97;3.67;;;18.20;99.90;;;;;;5047747;28;20291;-73
2023/07/30 03:56:32;;;;;;;5.78;4.25;;;18.20;99.90;;;;;;5046589;28;20456;-73
2023/07/30 03:58:58;;;;;;;4.50;4.07;;;18.20;99.90;;;;;;5041434;28;20179;-73
2023/07/30 04:01:23;;;;;;;4.38;3.97;;;18.30;99.90;;;;;;5051330;28;20523;-73
2023/07/30 04:03:49;;;;;;;4.07;3.67;;;18.30;99.90;;;;;;5051211;28;20685;-73
2023/07/30 04:06:15;;;;;;;4.55;3.10;;;19.60;99.90;;;;;;5050783;28;20211;-73
2023/07/30 04:08:40;;;;;;;4.25;3.08;;;20.70;99.90;;;;;;5063676;28;20203;-73
2023/07/30 04:11:06;;;;;;;3.95;3.45;;;21.30;99.90;;;;;;5043997;28;20215;-74
2023/07/30 04:13:31;;;;;;;3.97;3.28;;;21.00;99.90;;;;;;5043867;28;20185;-73
2023/07/30 04:15:57;;;;;;;3.78;2.92;;;22.20;99.90;;;;;;5059985;28;20195;-73
2023/07/30 04:18:23;;;;;;;4.35;3.63;;;22.40;99.90;;;;;;5049657;28;20917;-74
2023/07/30 04:20:48;;;;;;;3.40;2.92;;;22.30;99.90;;;;;;5051308;28;20196;-73
2023/07/30 04:23:14;;;;;;;4.43;3.72;;;22.70;99.90;;;;;;5050660;28;20234;-74
2023/07/30 04:25:40;;;;;;;4.75;4.22;;;22.70;99.90;;;;;;5048535;28;20600;-73
2023/07/30 04:28:06;;;;;;;4.00;3.60;;;22.40;99.90;;;;;;5047779;28;20204;-73
2023/07/30 04:30:32;;;;;;;4.82;2.95;;;21.70;99.90;;;;;;5045138;28;20235;-74
2023/07/30 04:32:58;;;;;;;4.07;3.30;;;21.40;99.90;;;;;;5049917;28;20576;-74
2023/07/30 04:35:23;;;;;;;4.03;2.83;;;21.00;99.90;;;;;;5049950;28;20214;-74
2023/07/30 04:37:49;;;;;;;4.43;3.42;;;21.10;99.90;;;;;;5048640;28;20242;-73
2023/07/30 04:40:15;;;;;;;3.63;3.28;;;21.40;99.90;;;;;;5050839;28;20178;-74
2023/07/30 04:42:40;;;;;;;3.50;3.00;;;21.00;99.90;;;;;;5051225;28;20578;-74
2023/07/30 04:45:06;;;;;;;3.53;3.22;;;21.10;99.90;;;;;;5039465;28;20294;-73
2023/07/30 04:47:32;;;;;;;3.50;3.20;;;21.60;99.90;;;;;;5040802;28;20215;-73
2023/07/30 04:49:58;;;;;;;4.30;3.13;;;23.20;99.90;;;;;;5046968;28;20176;-74
2023/07/30 04:52:23;;;;;;;3.45;3.10;;;24.40;99.90;;;;;;5041521;28;20425;-73
2023/07/30 04:54:49;;;;;;;2.80;2.40;;;25.40;99.90;;;;;;5059965;28;20205;-74
2023/07/30 04:57:14;;;;;;;3.13;2.80;;;26.10;99.90;;;;;;5046295;28;20203;-75
2023/07/30 04:59:40;;;;;;;3.67;2.70;;;26.90;99.90;;;;;;5046757;28;20211;-74
2023/07/30 05:02:06;;;;;;;3.83;2.50;;;27.70;99.90;;;;;;5048469;28;20227;-72
2023/07/30 05:04:31;;;;;;;4.35;2.63;;;27.30;99.90;;;;;;5044498;28;20595;-75
2023/07/30 05:06:57;;;;;;;3.75;2.50;;;27.80;99.90;;;;;;5048778;28;20928;-74
2023/07/30 05:09:23;;;;;;;3.85;2.58;;;27.60;99.90;;;;;;5045132;28;20638;-73
2023/07/30 05:11:48;;;;;;;4.45;2.22;;;27.40;99.90;;;;;;5047092;28;20294;-75
2023/07/30 05:14:14;;;;;;;2.72;2.35;;;27.60;99.90;;;;;;5050142;28;20235;-74
2023/07/30 05:16:39;;;;;;;3.15;2.40;;;27.40;99.90;;;;;;5048587;28;20210;-75
2023/07/30 05:19:05;;;;;;;2.53;2.28;;;27.80;99.90;;;;;;5048796;28;20960;-72
2023/07/30 05:21:31;;;;;;;2.50;2.30;;;28.30;99.90;;;;;;5049993;28;20221;-74
2023/07/30 05:23:56;;;;;;;5.45;4.90;;;28.60;99.90;;;;;;5046898;28;20290;-75
2023/07/30 05:26:22;;;;;;;3.20;2.90;;;29.10;99.90;;;;;;5041031;28;20212;-75
2023/07/30 05:28:47;;;;;;;2.88;2.67;;;29.60;99.90;;;;;;5045022;28;20179;-74
2023/07/30 05:31:13;;;;;;;4.47;2.63;;;30.00;99.90;;;;;;5043155;28;20306;-74
2023/07/30 05:33:39;;;;;;;4.38;2.00;;;30.20;99.90;;;;;;5044774;28;20215;-74
2023/07/30 05:36:05;;;;;;;5.35;4.05;;;29.00;99.90;;;;;;5047916;28;20765;-74
2023/07/30 05:38:31;;;;;;;11.90;9.90;;;27.70;99.90;;;;;;5047098;28;21025;-74
2023/07/30 05:40:57;;;;;;;4.65;3.22;;;26.50;99.90;;;;;;5046605;28;20215;-74
2023/07/30 05:43:22;;;;;;;6.00;4.32;;;25.50;99.90;;;;;;5047417;28;20584;-74
2023/07/30 05:45:48;;;;;;;4.90;2.92;;;24.70;99.90;;;;;;5045679;28;20210;-73
2023/07/30 05:48:14;;;;;;;3.95;3.53;;;24.20;99.90;;;;;;5047155;28;20769;-74
2023/07/30 05:50:39;;;;;;;3.35;2.70;;;23.80;99.90;;;;;;5047584;28;20253;-75
2023/07/30 05:53:05;;;;;;;2.83;2.63;;;23.40;99.90;;;;;;5045357;28;20327;-73
2023/07/30 05:55:31;;;;;;;2.72;2.53;;;23.50;99.90;;;;;;5049590;28;20175;-74
2023/07/30 05:57:56;;;;;;;3.00;2.40;;;23.90;99.90;;;;;;5049392;28;20211;-73
2023/07/30 06:00:22;;;;;;;3.17;2.78;;;24.90;99.90;;;;;;5044114;28;20265;-74
2023/07/30 06:02:48;;;;;;;2.65;2.28;;;26.00;99.90;;;;;;5039705;28;20200;-74
2023/07/30 06:05:13;;;;;;;2.55;2.33;;;26.20;99.90;;;;;;5041239;28;20684;-74
2023/07/30 06:07:39;;;;;;;2.30;2.10;;;27.20;99.90;;;;;;5038824;28;20195;-74
2023/07/30 06:10:05;;;;;;;12.88;10.40;;;28.00;99.90;;;;;;5062114;28;20287;-73
2023/07/30 06:12:31;;;;;;;6.30;5.25;;;28.40;99.90;;;;;;5042595;28;20226;-75
2023/07/30 06:14:56;;;;;;;5.38;3.55;;;28.70;99.90;;;;;;5045446;28;20203;-74
2023/07/30 06:17:22;;;;;;;18.10;13.43;;;29.10;99.90;;;;;;5047236;28;20207;-74
2023/07/30 06:19:48;;;;;;;9.63;5.40;;;28.20;99.90;;;;;;5044969;28;20263;-74
2023/07/30 06:22:13;;;;;;;11.00;9.02;;;27.50;99.90;;;;;;5046568;28;20203;-74
2023/07/30 06:24:39;;;;;;;6.85;5.53;;;27.90;99.90;;;;;;5046741;28;20199;-75
2023/07/30 06:27:05;;;;;;;2.92;2.50;;;27.30;99.90;;;;;;5048225;28;20204;-73
2023/07/30 06:29:30;;;;;;;2.75;2.55;;;26.80;99.90;;;;;;5047317;28;20745;-74
2023/07/30 06:31:56;;;;;;;2.65;2.08;;;26.50;99.90;;;;;;5047026;28;20191;-74
2023/07/30 06:34:22;;;;;;;2.50;2.08;;;26.30;99.90;;;;;;5045124;28;20267;-74
2023/07/30 06:36:47;;;;;;;3.00;1.90;;;26.50;99.90;;;;;;5040730;28;20717;-74
2023/07/30 06:39:14;;;;;;;3.10;2.17;;;26.70;99.90;;;;;;5041448;28;20226;-74
2023/07/30 06:41:40;;;;;;;3.42;2.25;;;26.30;99.90;;;;;;5039554;28;20223;-75
2023/07/30 06:44:05;;;;;;;2.20;2.00;;;25.80;99.90;;;;;;5045302;28;20359;-72
2023/07/30 06:46:31;;;;;;;2.67;1.80;;;25.30;99.90;;;;;;5044137;28;20550;-74
2023/07/30 06:48:56;;;;;;;2.70;2.08;;;24.90;99.90;;;;;;5042651;28;20208;-74
2023/07/30 06:51:24;;;;;;;4.00;2.20;;;24.70;99.90;;;;;;5043362;28;20593;-74
2023/07/30 06:53:50;;;;;;;2.38;2.17;;;24.70;99.90;;;;;;5045002;28;20709;-74
2023/07/30 06:56:16;;;;;;;2.50;2.10;;;24.80;99.90;;;;;;5043788;28;20261;-74
2023/07/30 06:58:41;;;;;;;3.65;2.17;;;25.30;99.90;;;;;;5052834;28;20242;-74
2023/07/30 07:01:07;;;;;;;3.78;2.10;;;26.60;99.90;;;;;;5041933;28;20746;-73
2023/07/30 07:03:32;;;;;;;3.40;1.98;;;28.60;99.90;;;;;;5046706;28;21012;-74
2023/07/30 07:05:58;;;;;;;1.88;1.70;;;30.10;99.90;;;;;;5045963;28;20211;-74
2023/07/30 07:08:24;;;;;;;1.98;1.70;;;31.40;99.90;;;;;;5048029;28;20631;-75
2023/07/30 07:10:50;;;;;;;2.10;1.65;;;32.60;99.90;;;;;;5043214;28;20282;-74
2023/07/30 07:13:16;;;;;;;1.88;1.75;;;33.20;99.90;;;;;;5040598;28;20229;-75
2023/07/30 07:15:42;;;;;;;2.00;1.90;;;33.20;99.90;;;;;;5038548;28;20568;-74
2023/07/30 07:18:08;;;;;;;2.20;2.00;;;33.40;99.90;;;;;;5047768;28;20406;-75
2023/07/30 07:20:34;;;;;;;6.97;1.60;;;33.10;99.90;;;;;;5055001;28;20229;-75
2023/07/30 07:22:59;;;;;;;3.05;1.92;;;32.80;99.90;;;;;;5050215;28;20275;-75
2023/07/30 07:25:25;;;;;;;2.10;1.70;;;33.50;99.90;;;;;;5049185;28;20187;-74
2023/07/30 07:27:50;;;;;;;2.45;2.20;;;34.10;99.90;;;;;;5044404;28;20202;-75
2023/07/30 07:30:16;;;;;;;3.45;2.00;;;34.70;99.90;;;;;;5045585;28;20210;-75
2023/07/30 07:32:42;;;;;;;2.15;1.98;;;34.80;99.50;;;;;;5042929;28;20942;-74
2023/07/30 07:35:08;;;;;;;2.65;1.73;;;34.20;99.90;;;;;;5047291;28;20290;-74
2023/07/30 07:37:34;;;;;;;2.92;2.20;;;34.00;99.90;;;;;;5048480;28;20187;-73
2023/07/30 07:40:00;;;;;;;3.83;2.20;;;32.70;99.90;;;;;;5047273;28;20249;-73
2023/07/30 07:42:25;;;;;;;1.75;1.65;;;32.80;99.90;;;;;;5046671;28;20215;-74
2023/07/30 07:44:51;;;;;;;2.78;2.20;;;32.50;99.90;;;;;;5047445;28;20202;-75
2023/07/30 07:47:16;;;;;;;2.78;2.10;;;32.00;99.90;;;;;;5048246;28;20294;-74
2023/07/30 07:49:42;;;;;;;2.22;2.00;;;32.60;99.90;;;;;;5047239;28;20283;-74
2023/07/30 07:52:08;;;;;;;3.67;2.00;;;32.60;99.90;;;;;;5038939;28;20207;-75
2023/07/30 07:54:34;;;;;;;2.58;1.92;;;33.00;99.90;;;;;;5041379;28;20222;-74
2023/07/30 07:57:00;;;;;;;3.55;2.08;;;34.00;99.90;;;;;;5045332;28;20314;-74
2023/07/30 07:59:27;;;;;;;3.47;2.10;;;34.30;99.90;;;;;;5043032;28;20298;-74
2023/07/30 08:01:53;;;;;;;2.55;2.35;;;33.40;99.90;;;;;;5043738;28;20209;-74
2023/07/30 08:04:21;;;;;;;2.13;1.92;;;32.30;99.90;;;;;;5044171;28;20274;-74
2023/07/30 08:06:47;;;;;;;3.95;2.20;;;30.80;99.90;;;;;;5041470;28;20215;-74
2023/07/30 08:09:12;;;;;;;3.17;2.25;;;30.40;99.90;;;;;;5048637;28;20265;-74
2023/07/30 08:11:38;;;;;;;2.15;1.95;;;30.40;99.90;;;;;;5055031;28;20226;-75
2023/07/30 08:14:04;;;;;;;2.35;2.15;;;30.20;99.90;;;;;;5065855;23;20223;-77
2023/07/30 08:16:29;;;;;;;3.33;2.72;;;30.70;99.90;;;;;;5048221;28;20244;-77
2023/07/30 08:18:55;;;;;;;2.38;2.17;;;30.50;99.90;;;;;;5046136;28;20620;-75
2023/07/30 08:21:21;;;;;;;2.60;2.10;;;30.90;99.90;;;;;;5047255;28;20204;-77
2023/07/30 08:23:47;;;;;;;2.95;2.10;;;31.10;99.90;;;;;;5047183;28;20231;-77
2023/07/30 08:26:12;;;;;;;3.15;2.15;;;30.60;99.90;;;;;;5039679;28;20208;-77
2023/07/30 08:28:38;;;;;;;2.08;1.92;;;31.60;99.90;;;;;;5047216;28;20235;-76
2023/07/30 08:31:04;;;;;;;5.40;2.33;;;32.10;99.90;;;;;;5039708;28;20204;-77
2023/07/30 08:33:29;;;;;;;3.15;2.53;;;31.60;99.90;;;;;;5044492;28;20784;-76
2023/07/30 08:35:59;;;;;;;4.70;2.67;;;30.40;99.90;;;;;;5044556;28;20297;-77
2023/07/30 08:38:25;;;;;;;3.83;2.00;;;29.70;99.90;;;;;;5047769;28;20286;-77
2023/07/30 08:40:51;;;;;;;3.90;2.40;;;29.00;99.90;;;;;;5044689;28;20266;-77
2023/07/30 08:43:18;;;;;;;3.58;2.10;;;28.50;99.90;;;;;;5045460;28;20203;-77
2023/07/30 08:45:44;;;;;;;3.88;2.42;;;29.60;99.90;;;;;;5044260;28;20222;-77
2023/07/30 08:48:10;;;;;;;2.47;1.92;;;30.80;99.90;;;;;;5049522;28;20211;-77
2023/07/30 08:50:37;;;;;;;4.55;2.15;;;31.60;99.90;;;;;;5049199;28;20212;-76
2023/07/30 08:53:03;;;;;;;1.95;1.50;;;31.50;99.90;;;;;;5048087;28;20195;-77
2023/07/30 08:55:32;;;;;;;3.92;1.85;;;30.80;99.90;;;;;;5050047;28;20271;-77
2023/07/30 08:58:01;;;;;;;2.97;1.88;;;31.50;99.90;;;;;;5049454;28;20579;-78
2023/07/30 09:00:33;;;;;;;2.92;1.83;;;32.00;99.90;;;;;;5050742;28;20208;-76
2023/07/30 09:03:02;;;;;;;2.63;1.85;;;32.60;99.90;;;;;;5046554;28;20215;-77
2023/07/30 09:05:29;;;;;;;3.25;1.90;;;33.00;99.10;;;;;;5050811;28;20211;-77
2023/07/30 09:07:55;;;;;;;2.75;2.10;;;32.50;97.20;;;;;;5042975;28;20206;-76
2023/07/30 09:10:21;;;;;;;3.70;2.28;;;31.70;98.20;;;;;;5051497;28;20594;-77
2023/07/30 09:12:56;;;;;;;3.13;2.25;;;31.80;98.60;;;;;;5045737;28;20246;-77
2023/07/30 09:15:32;;;;;;;4.55;2.05;;;32.60;98.30;;;;;;5041543;28;20227;-77
2023/07/30 09:17:58;;;;;;;5.75;2.88;;;32.90;97.80;;;;;;5062775;28;20211;-77
2023/07/30 09:20:23;;;;;;;3.05;2.38;;;32.80;97.10;;;;;;5046817;28;20211;-77
2023/07/30 09:22:50;;;;;;;4.28;2.13;;;32.90;96.00;;;;;;5041849;28;20249;-77
2023/07/30 09:25:20;;;;;;;3.38;1.92;;;32.90;95.40;;;;;;5046731;28;20176;-77
2023/07/30 09:27:51;;;;;;;3.10;2.00;;;32.70;95.90;;;;;;5045431;28;20216;-77
2023/07/30 09:30:25;;;;;;;3.42;2.08;;;32.60;96.20;;;;;;5048794;28;20231;-77
2023/07/30 09:33:00;;;;;;;3.90;2.03;;;32.00;96.50;;;;;;5047897;28;20333;-77
2023/07/30 09:35:26;;;;;;;4.05;2.28;;;31.10;97.60;;;;;;5048393;28;20582;-77
2023/07/30 09:38:03;;;;;;;3.28;2.25;;;30.70;99.00;;;;;;5047021;28;20176;-77
2023/07/30 09:40:33;;;;;;;4.68;2.10;;;31.00;98.40;;;;;;5045811;28;20171;-77
2023/07/30 09:42:58;;;;;;;3.55;2.15;;;30.90;98.30;;;;;;5047070;28;20294;-77
2023/07/30 09:45:25;;;;;;;4.20;2.28;;;30.90;98.90;;;;;;5048483;28;20655;-77
2023/07/30 09:47:54;;;;;;;1.85;1.60;;;30.90;99.20;;;;;;5042078;28;20210;-78
2023/07/30 09:50:19;;;;;;;2.83;1.90;;;31.00;99.00;;;;;;5048394;28;20222;-77
2023/07/30 09:52:45;;;;;;;6.38;2.33;;;31.00;99.50;;;;;;5047897;28;20989;-77
2023/07/30 09:55:11;;;;;;;4.75;2.42;;;30.60;99.00;;;;;;5065737;28;20638;-77
2023/07/30 09:57:38;;;;;;;4.85;1.98;;;30.10;99.90;;;;;;5042934;28;20203;-76
2023/07/30 10:00:06;;;;;;;2.70;1.92;;;29.60;99.90;;;;;;5046245;28;20310;-77
2023/07/30 10:02:36;;;;;;;7.72;5.07;;;29.10;99.90;;;;;;5048012;28;20208;-76
2023/07/30 10:05:06;;;;;;;3.20;2.63;;;29.10;99.90;;;;;;5048307;28;20176;-77
2023/07/30 10:07:33;;;;;;;3.63;2.47;;;29.40;99.90;;;;;;5049474;28;20168;-76
2023/07/30 10:10:01;;;;;;;2.33;1.90;;;29.50;99.90;;;;;;5048165;28;20208;-77
2023/07/30 10:12:34;;;;;;;7.47;2.28;;;29.40;99.90;;;;;;5048182;28;20294;-77
2023/07/30 10:15:01;;;;;;;5.15;2.40;;;29.40;99.90;;;;;;5047688;28;20243;-77
2023/07/30 10:17:28;;;;;;;3.10;2.33;;;29.00;99.90;;;;;;5041902;28;20212;-77
2023/07/30 10:19:54;;;;;;;3.55;2.20;;;28.50;99.90;;;;;;5039197;28;20210;-78
2023/07/30 10:22:25;;;;;;;2.97;2.15;;;28.30;99.90;;;;;;5046394;28;20211;-77
2023/07/30 10:24:59;;;;;;;3.17;2.10;;;27.80;99.90;;;;;;5046548;28;20199;-77
2023/07/30 10:27:26;;;;;;;4.65;2.13;;;27.70;99.90;;;;;;5045728;28;20238;-77
2023/07/30 10:30:08;;;;;;;2.90;2.20;;;27.50;99.90;;;;;;5042586;28;20219;-77
2023/07/30 10:32:42;;;;;;;4.05;2.50;;;27.40;99.90;;;;;;5043587;28;20210;-76
2023/07/30 10:35:08;;;;;;;5.15;3.05;;;27.60;99.90;;;;;;5047444;28;21434;-76
2023/07/30 10:37:34;;;;;;;5.88;2.75;;;27.50;99.90;;;;;;5045799;28;20180;-76
2023/07/30 10:40:00;;;;;;;4.13;2.45;;;27.50;99.90;;;;;;5047523;28;20755;-76
2023/07/30 10:42:34;;;;;;;5.85;2.22;;;27.80;99.90;;;;;;5047582;28;20231;-77
2023/07/30 10:45:00;;;;;;;3.25;2.13;;;27.90;99.90;;;;;;5039101;28;20207;-76
2023/07/30 10:47:29;;;;;;;2.55;1.92;;;28.20;99.90;;;;;;5048885;28;20211;-77
2023/07/30 10:50:00;;;;;;;5.15;2.30;;;28.20;99.90;;;;;;5047043;28;20179;-77
2023/07/30 10:52:26;;;;;;;3.20;2.15;;;28.50;99.90;;;;;;5048871;28;20689;-77
2023/07/30 10:55:00;;;;;;;3.67;1.98;;;28.70;99.90;;;;;;5048360;28;20615;-76
2023/07/30 10:57:33;;;;;;;3.33;2.08;;;28.40;99.90;;;;;;5048759;28;20676;-77
2023/07/30 11:00:02;;;;;;;2.60;1.90;;;28.20;99.90;;;;;;5040149;28;20226;-77
2023/07/30 11:02:30;;;;;;;3.85;2.30;;;28.20;99.90;;;;;;5044762;28;20254;-77
2023/07/30 11:04:55;;;;;;;4.38;2.72;;;28.40;99.90;;;;;;5042782;28;20180;-77
2023/07/30 11:07:21;;;;;;;11.73;7.22;;;28.60;99.90;;;;;;5043995;28;20668;-77
2023/07/30 11:09:58;;;;;;;4.38;2.63;;;28.90;99.90;;;;;;5047214;28;20342;-77
2023/07/30 11:12:24;;;;;;;3.95;2.72;;;28.80;98.90;;;;;;5044350;28;20701;-77
2023/07/30 11:14:50;;;;;;;4.05;2.10;;;28.40;99.50;;;;;;5046374;28;20222;-77
2023/07/30 11:17:18;;;;;;;4.97;2.10;;;28.10;99.90;;;;;;5046030;28;20211;-78
2023/07/30 11:19:44;;;;;;;3.85;2.00;;;28.00;99.90;;;;;;5047234;28;20657;-77
2023/07/30 11:22:09;;;;;;;3.15;1.90;;;28.10;99.90;;;;;;5046376;28;20210;-77
2023/07/30 11:24:36;;;;;;;3.13;2.10;;;28.00;99.90;;;;;;5045744;28;20215;-77
2023/07/30 11:27:02;;;;;;;4.03;1.88;;;27.90;99.90;;;;;;5056373;28;20730;-77
2023/07/30 11:29:28;;;;;;;5.97;2.65;;;28.20;99.90;;;;;;5038896;28;20204;-77
2023/07/30 11:31:57;;;;;;;2.80;1.70;;;28.30;99.90;;;;;;5043988;28;20273;-77
2023/07/30 11:34:24;;;;;;;4.78;2.20;;;28.40;99.00;;;;;;5043696;28;20677;-77
2023/07/30 11:36:50;;;;;;;3.17;2.03;;;28.20;99.10;;;;;;5045806;28;20212;-77
2023/07/30 11:39:16;;;;;;;4.38;2.00;;;28.10;99.10;;;;;;5040576;28;20540;-77
2023/07/30 11:41:42;;;;;;;7.00;3.42;;;27.90;99.90;;;;;;5041473;28;20621;-77
2023/07/30 11:44:07;;;;;;;4.50;2.13;;;28.00;99.90;;;;;;5044954;28;20219;-77
2023/07/30 11:46:35;;;;;;;3.75;1.83;;;28.10;99.80;;;;;;5045375;28;20255;-77
2023/07/30 11:49:17;;;;;;;3.85;1.90;;;28.10;99.90;;;;;;5043707;28;20689;-76
2023/07/30 11:51:42;;;;;;;3.97;1.90;;;28.00;99.70;;;;;;5042206;28;20219;-77
2023/07/30 11:54:19;;;;;;;4.40;1.98;;;27.80;99.90;;;;;;5046234;28;20246;-77
2023/07/30 11:56:45;;;;;;;4.10;1.67;;;27.60;99.80;;;;;;5046596;28;20207;-76
2023/07/30 11:59:11;;;;;;;4.80;2.80;;;27.70;99.90;;;;;;5046795;28;20273;-76
2023/07/30 12:01:36;;;;;;;3.72;2.25;;;27.80;99.90;;;;;;5047612;28;20534;-76
2023/07/30 12:04:06;;;;;;;5.82;2.20;;;27.90;99.80;;;;;;5055893;28;20269;-76
2023/07/30 12:06:47;;;;;;;5.32;2.35;;;27.70;99.40;;;;;;5042989;28;20204;-77
2023/07/30 12:09:19;;;;;;;8.50;4.78;;;27.80;98.90;;;;;;5059093;28;20216;-77
2023/07/30 12:11:55;;;;;;;5.90;2.70;;;27.90;99.90;;;;;;5040181;28;20222;-76
2023/07/30 12:14:50;;;;;;;7.47;3.45;;;27.60;99.20;;;;;;5041523;28;20581;-77
2023/07/30 12:17:16;;;;;;;3.10;2.13;;;27.70;99.80;;;;;;5034183;28;20203;-77
2023/07/30 12:19:42;;;;;;;7.70;3.22;;;27.70;99.40;;;;;;5045896;28;20266;-77
2023/07/30 12:22:08;;;;;;;7.82;2.55;;;27.80;99.30;;;;;;5042564;28;20668;-77
2023/07/30 12:24:33;;;;;;;4.38;2.65;;;27.90;99.70;;;;;;5051331;28;20285;-77
2023/07/30 12:26:59;;;;;;;3.70;2.28;;;28.00;99.80;;;;;;5048596;28;20273;-77
2023/07/30 12:29:25;;;;;;;3.28;2.25;;;27.70;99.80;;;;;;5047798;28;20290;-76
2023/07/30 12:31:55;;;;;;;3.15;2.15;;;27.70;99.90;;;;;;5050986;28;20609;-77
2023/07/30 12:34:22;;;;;;;2.70;2.20;;;27.90;99.90;;;;;;5049636;28;20192;-77
2023/07/30 12:36:48;;;;;;;4.07;2.20;;;27.80;99.90;;;;;;5049608;28;20199;-78
2023/07/30 12:39:14;;;;;;;6.00;2.15;;;27.80;99.90;;;;;;5049325;28;20203;-77
2023/07/30 12:41:39;;;;;;;3.53;2.10;;;27.90;99.90;;;;;;5051374;28;20664;-77